Time;durP1;ratioP1;P1;durP2;ratioP2;P2;SDS_P1;SDS_P2;PMS_P1;PMS_P2;Temp;Humidity;BMP_temperature;BMP_pressure;BME280_temperature;BME280_humidity;BME280_pressure;Samples;Min_cycle;Max_cycle;Signal;HPM_P1;HPM_P2
2022/10/03 00:02:26;;;;;;;7.18;1.65;;;;;;;;;;4970825;28;20037;-82
2022/10/03 00:04:57;;;;;;;5.47;1.13;;;;;;;;;;4971951;28;20397;-82
2022/10/03 00:07:47;;;;;;;7.05;1.30;;;;;;;;;;4970315;28;20151;-82
2022/10/03 00:10:31;;;;;;;5.95;1.23;;;;;;;;;;4972240;28;20061;-82
2022/10/03 00:13:17;;;;;;;8.18;1.30;;;;;;;;;;4955819;28;20040;-82
2022/10/03 00:15:53;;;;;;;7.87;1.60;;;;;;;;;;4988311;28;20053;-82
2022/10/03 00:18:34;;;;;;;6.38;1.50;;;;;;;;;;4969495;28;20353;-82
2022/10/03 00:21:28;;;;;;;6.75;1.08;;;;;;;;;;4968258;28;20113;-82
2022/10/03 00:24:22;;;;;;;6.53;1.20;;;;;;;;;;4953297;28;20061;-82
2022/10/03 00:27:17;;;;;;;5.90;1.20;;;;;;;;;;4985240;28;20486;-82
2022/10/03 00:29:52;;;;;;;6.18;1.55;;;;;;;;;;4955272;28;20035;-82
2022/10/03 00:33:01;;;;;;;6.93;1.33;;;;;;;;;;4956576;28;20397;-82
2022/10/03 00:35:33;;;;;;;7.85;1.40;;;;;;;;;;4916902;28;20591;-82
2022/10/03 00:38:17;;;;;;;8.55;1.50;;;;;;;;;;4968465;28;20096;-82
2022/10/03 00:40:59;;;;;;;10.20;2.38;;;;;;;;;;4988161;28;20085;-82
2022/10/03 00:43:46;;;;;;;7.57;1.50;;;;;;;;;;4969237;28;20232;-82
2022/10/03 00:46:28;;;;;;;3.70;1.10;;;;;;;;;;4968089;28;20038;-83
2022/10/03 00:49:15;;;;;;;4.97;1.20;;;;;;;;;;4953759;28;20058;-82
2022/10/03 00:52:11;;;;;;;6.70;1.50;;;;;;;;;;4986365;28;20066;-82
2022/10/03 00:54:36;;;;;;;5.93;1.33;;;;;;;;;;4970431;28;20045;-82
2022/10/03 00:57:49;;;;;;;8.90;1.90;;;;;;;;;;4971012;28;20493;-82
2022/10/03 01:00:14;;;;;;;6.72;1.10;;;;;;;;;;4939148;28;20293;-82
2022/10/03 01:02:53;;;;;;;7.25;1.30;;;;;;;;;;4974765;28;20143;-82
2022/10/03 01:05:23;;;;;;;4.80;1.05;;;;;;;;;;4959605;28;20126;-82
2022/10/03 01:08:08;;;;;;;4.57;1.23;;;;;;;;;;4955952;28;20041;-82
2022/10/03 01:10:55;;;;;;;7.93;1.52;;;;;;;;;;4955209;28;20117;-81
2022/10/03 01:13:23;;;;;;;;;;;;;;;;;;4977231;28;20514;-82
2022/10/03 01:15:55;;;;;;;7.45;1.50;;;;;;;;;;4990194;28;19988;-82
2022/10/03 01:18:47;;;;;;;9.60;1.65;;;;;;;;;;4971848;28;20112;-81
2022/10/03 01:21:32;;;;;;;7.68;1.40;;;;;;;;;;4973435;28;20038;-82
2022/10/03 01:24:16;;;;;;;6.13;1.60;;;;;;;;;;5022949;28;20553;-82
2022/10/03 01:26:48;;;;;;;10.57;1.83;;;;;;;;;;5003837;28;20084;-82
2022/10/03 01:32:27;;;;;;;6.60;1.88;;;;;;;;;;5003910;28;20049;-82
2022/10/03 01:35:09;;;;;;;5.22;1.27;;;;;;;;;;4973650;28;20041;-82
2022/10/03 01:37:53;;;;;;;5.97;1.70;;;;;;;;;;4981080;28;20042;-83
2022/10/03 01:40:25;;;;;;;8.45;1.60;;;;;;;;;;4982987;28;20061;-81
2022/10/03 01:43:18;;;;;;;9.70;2.00;;;;;;;;;;4974904;28;20033;-82
2022/10/03 01:45:54;;;;;;;5.80;1.38;;;;;;;;;;4969537;28;20385;-82
2022/10/03 01:48:31;;;;;;;6.10;1.38;;;;;;;;;;5004236;28;20065;-82
2022/10/03 01:51:10;;;;;;;5.97;1.55;;;;;;;;;;4976863;28;20049;-83
2022/10/03 01:53:54;;;;;;;4.97;1.40;;;;;;;;;;4986913;28;20061;-82
2022/10/03 01:56:39;;;;;;;6.93;1.20;;;;;;;;;;4982081;28;20030;-82
2022/10/03 01:59:16;;;;;;;5.45;1.20;;;;;;;;;;4966126;28;20062;-81
2022/10/03 02:01:59;;;;;;;6.00;1.42;;;;;;;;;;4988744;28;20095;-82
2022/10/03 02:04:52;;;;;;;6.60;1.45;;;;;;;;;;4987124;28;20053;-82
2022/10/03 02:07:21;;;;;;;4.88;1.35;;;;;;;;;;4984487;28;20111;-82
2022/10/03 02:10:08;;;;;;;5.20;1.10;;;;;;;;;;5003997;28;20034;-82
2022/10/03 02:12:40;;;;;;;4.88;1.30;;;;;;;;;;4969630;28;20117;-82
2022/10/03 02:15:29;;;;;;;3.88;0.85;;;;;;;;;;4967798;28;20069;-83
2022/10/03 02:18:12;;;;;;;8.85;1.92;;;;;;;;;;4972053;28;20128;-82
2022/10/03 02:20:49;;;;;;;5.55;1.52;;;;;;;;;;4963843;28;20104;-81
2022/10/03 02:23:30;;;;;;;5.63;1.27;;;;;;;;;;4978474;28;20042;-82
2022/10/03 02:26:07;;;;;;;6.75;1.50;;;;;;;;;;5002843;28;20038;-82
2022/10/03 02:28:58;;;;;;;8.52;2.03;;;;;;;;;;5006825;28;20048;-82
2022/10/03 02:32:02;;;;;;;4.85;1.30;;;;;;;;;;4974554;28;20038;-82
2022/10/03 02:34:33;;;;;;;7.90;1.58;;;;;;;;;;4902782;29;20044;-82
2022/10/03 02:37:07;;;;;;;6.53;1.42;;;;;;;;;;4905763;29;20123;-82
2022/10/03 02:40:10;;;;;;;6.70;1.52;;;;;;;;;;4945282;28;20457;-83
2022/10/03 02:42:50;;;;;;;6.07;1.65;;;;;;;;;;4989089;28;20113;-82
2022/10/03 02:45:18;;;;;;;5.60;1.38;;;;;;;;;;5007200;28;20545;-82
2022/10/03 02:47:54;;;;;;;6.28;1.60;;;;;;;;;;5004454;28;20488;-82
2022/10/03 02:50:34;;;;;;;6.93;1.70;;;;;;;;;;4989232;28;20488;-82
2022/10/03 02:53:09;;;;;;;7.70;1.38;;;;;;;;;;4994139;28;20076;-82
2022/10/03 02:55:35;;;;;;;4.30;1.08;;;;;;;;;;4987985;28;20095;-82
2022/10/03 02:58:28;;;;;;;10.18;2.20;;;;;;;;;;4993203;28;20099;-82
2022/10/03 03:01:28;;;;;;;6.97;1.95;;;;;;;;;;4988652;28;20515;-82
2022/10/03 03:04:12;;;;;;;5.20;0.98;;;;;;;;;;5004772;28;20045;-82
2022/10/03 03:07:14;;;;;;;12.35;2.22;;;;;;;;;;4986951;28;20034;-83
2022/10/03 03:10:11;;;;;;;5.60;1.30;;;;;;;;;;4989449;28;20096;-82
2022/10/03 03:13:08;;;;;;;7.30;1.35;;;;;;;;;;4986563;28;20045;-82
2022/10/03 03:15:36;;;;;;;;;;;;;;;;;;4988514;28;20088;-82
2022/10/03 03:18:10;;;;;;;6.35;1.75;;;;;;;;;;5005497;28;19917;-82
2022/10/03 03:21:09;;;;;;;6.50;1.75;;;;;;;;;;4988665;28;20034;-83
2022/10/03 03:24:08;;;;;;;4.18;1.52;;;;;;;;;;5010060;28;20030;-82
2022/10/03 03:26:58;;;;;;;7.03;1.25;;;;;;;;;;4948811;28;20037;-82
2022/10/03 03:29:23;;;;;;;7.18;1.98;;;;;;;;;;4992855;28;20038;-83
2022/10/03 03:32:03;;;;;;;6.57;1.40;;;;;;;;;;4991987;28;20516;-82
2022/10/03 03:34:32;;;;;;;5.18;1.30;;;;;;;;;;4976013;28;20046;-82
2022/10/03 03:37:05;;;;;;;8.38;1.90;;;;;;;;;;5008556;28;20398;-83
2022/10/03 03:39:33;;;;;;;6.45;1.58;;;;;;;;;;4976752;28;20508;-82
2022/10/03 03:42:07;;;;;;;4.10;1.50;;;;;;;;;;4979572;28;20034;-83
2022/10/03 03:45:08;;;;;;;7.25;1.17;;;;;;;;;;4991457;28;20607;-82
2022/10/03 03:47:53;;;;;;;7.45;1.73;;;;;;;;;;4991963;28;20405;-83
2022/10/03 03:50:47;;;;;;;8.35;1.45;;;;;;;;;;4990161;28;20030;-82
2022/10/03 03:53:40;;;;;;;7.90;1.42;;;;;;;;;;4968848;28;20038;-82
2022/10/03 03:56:50;;;;;;;7.55;1.45;;;;;;;;;;5006625;28;20030;-82
2022/10/03 03:59:24;;;;;;;6.05;1.55;;;;;;;;;;4929534;28;20038;-82
2022/10/03 04:02:14;;;;;;;7.35;1.40;;;;;;;;;;4989810;28;20556;-82
2022/10/03 04:05:01;;;;;;;7.10;1.40;;;;;;;;;;5008163;28;20397;-82
2022/10/03 04:07:49;;;;;;;6.28;1.42;;;;;;;;;;4989591;28;20045;-82
2022/10/03 04:10:29;;;;;;;;;;;;;;;;;;4982440;28;20042;-82
2022/10/03 04:13:19;;;;;;;5.13;1.48;;;;;;;;;;4990905;28;19928;-83
2022/10/03 04:16:06;;;;;;;5.85;1.30;;;;;;;;;;4989615;28;20149;-82
2022/10/03 04:18:57;;;;;;;7.15;1.33;;;;;;;;;;5007618;28;20050;-81
2022/10/03 04:21:54;;;;;;;3.97;1.35;;;;;;;;;;4990777;28;20486;-82
2022/10/03 04:24:39;;;;;;;4.70;1.42;;;;;;;;;;4990795;28;20092;-82
2022/10/03 04:27:42;;;;;;;5.45;1.30;;;;;;;;;;4990877;28;20505;-81
2022/10/03 04:30:30;;;;;;;6.90;1.45;;;;;;;;;;4927267;29;20107;-83
2022/10/03 04:32:58;;;;;;;5.65;1.98;;;;;;;;;;4970533;28;20405;-82
2022/10/03 04:35:48;;;;;;;5.22;1.33;;;;;;;;;;5008588;28;20038;-82
2022/10/03 04:38:38;;;;;;;4.97;1.63;;;;;;;;;;4974261;28;20104;-82
2022/10/03 04:41:15;;;;;;;9.32;1.90;;;;;;;;;;4972435;28;20504;-82
2022/10/03 04:43:51;;;;;;;4.90;1.50;;;;;;;;;;4970431;28;20033;-81
2022/10/03 04:46:29;;;;;;;5.80;1.35;;;;;;;;;;4989894;28;20040;-82
2022/10/03 04:49:01;;;;;;;8.32;1.75;;;;;;;;;;4991081;28;20457;-82
2022/10/03 04:51:45;;;;;;;5.93;1.45;;;;;;;;;;4973354;28;20090;-82
2022/10/03 04:54:33;;;;;;;5.75;1.55;;;;;;;;;;4978522;28;20052;-82
2022/10/03 04:57:19;;;;;;;8.07;2.10;;;;;;;;;;4980026;28;20052;-82
2022/10/03 04:59:54;;;;;;;6.53;1.00;;;;;;;;;;4967944;28;20042;-81
2022/10/03 05:02:34;;;;;;;6.43;1.25;;;;;;;;;;4988196;28;20041;-81
2022/10/03 05:05:10;;;;;;;8.25;2.17;;;;;;;;;;4996249;28;20033;-82
2022/10/03 05:07:54;;;;;;;6.18;1.27;;;;;;;;;;5005445;28;20553;-82
2022/10/03 05:10:29;;;;;;;7.75;1.77;;;;;;;;;;4989898;28;20118;-82
2022/10/03 05:13:15;;;;;;;6.78;1.70;;;;;;;;;;4992576;28;20050;-81
2022/10/03 05:15:55;;;;;;;5.78;1.25;;;;;;;;;;4989968;28;20045;-82
2022/10/03 05:18:42;;;;;;;6.28;1.30;;;;;;;;;;4974176;28;20030;-82
2022/10/03 05:21:19;;;;;;;5.70;1.45;;;;;;;;;;4963949;28;20034;-83
2022/10/03 05:24:21;;;;;;;4.40;1.30;;;;;;;;;;4992111;28;20046;-82
2022/10/03 05:27:05;;;;;;;3.90;1.00;;;;;;;;;;4988772;28;20046;-82
2022/10/03 05:29:41;;;;;;;2.72;1.10;;;;;;;;;;5006303;28;20037;-81
2022/10/03 05:32:33;;;;;;;6.10;1.60;;;;;;;;;;4971989;28;20033;-82
2022/10/03 05:35:20;;;;;;;4.95;1.30;;;;;;;;;;5006319;28;20041;-82
2022/10/03 05:38:04;;;;;;;6.22;1.70;;;;;;;;;;4972978;28;20041;-82
2022/10/03 05:40:33;;;;;;;3.90;0.98;;;;;;;;;;4988962;28;20108;-82
2022/10/03 05:43:23;;;;;;;5.53;1.27;;;;;;;;;;4976329;28;20033;-82
2022/10/03 05:46:02;;;;;;;3.47;1.05;;;;;;;;;;4972161;28;20061;-82
2022/10/03 05:49:09;;;;;;;7.32;1.27;;;;;;;;;;4991855;28;20115;-83
2022/10/03 05:51:49;;;;;;;6.50;1.85;;;;;;;;;;4973658;28;20038;-82
2022/10/03 05:54:28;;;;;;;7.30;1.27;;;;;;;;;;4972292;28;20421;-82
2022/10/03 05:57:26;;;;;;;5.75;1.58;;;;;;;;;;4988281;28;20036;-82
2022/10/03 06:00:13;;;;;;;5.88;1.17;;;;;;;;;;4964644;28;20044;-82
2022/10/03 06:02:39;;;;;;;5.13;1.27;;;;;;;;;;5006252;28;20416;-82
2022/10/03 06:05:38;;;;;;;11.65;1.83;;;;;;;;;;4987943;28;20065;-82
2022/10/03 06:08:39;;;;;;;7.15;1.40;;;;;;;;;;5028975;27;20400;-83
2022/10/03 06:11:16;;;;;;;6.05;1.48;;;;;;;;;;5044638;28;20045;-85
2022/10/03 06:14:06;;;;;;;7.87;1.10;;;;;;;;;;5044637;28;20054;-85
2022/10/03 06:16:53;;;;;;;4.57;0.98;;;;;;;;;;5015960;28;20491;-84
2022/10/03 06:19:22;;;;;;;6.88;1.42;;;;;;;;;;5031648;28;20561;-82
2022/10/03 06:22:20;;;;;;;4.00;0.80;;;;;;;;;;5038350;28;20037;-83
2022/10/03 06:25:03;;;;;;;8.38;1.33;;;;;;;;;;5029117;28;20048;-83
2022/10/03 06:28:06;;;;;;;8.35;1.30;;;;;;;;;;5041038;28;20163;-83
2022/10/03 06:30:44;;;;;;;8.00;1.58;;;;;;;;;;5043759;28;20037;-83
2022/10/03 06:33:31;;;;;;;7.28;1.30;;;;;;;;;;5046522;28;20073;-84
2022/10/03 06:36:17;;;;;;;4.65;1.13;;;;;;;;;;5029426;28;20041;-83
2022/10/03 06:39:09;;;;;;;6.00;1.30;;;;;;;;;;5030167;28;20034;-83
2022/10/03 06:41:55;;;;;;;10.27;1.70;;;;;;;;;;5038403;28;20464;-83
2022/10/03 06:44:55;;;;;;;6.22;1.15;;;;;;;;;;5030323;28;20106;-84
2022/10/03 06:47:46;;;;;;;10.30;1.23;;;;;;;;;;5001260;28;20056;-83
2022/10/03 06:50:11;;;;;;;5.45;1.10;;;;;;;;;;5010089;28;20050;-84
2022/10/03 06:53:09;;;;;;;5.32;1.27;;;;;;;;;;5030985;28;20500;-84
2022/10/03 06:56:12;;;;;;;8.50;1.98;;;;;;;;;;5029625;28;20439;-84
2022/10/03 06:58:43;;;;;;;5.32;1.55;;;;;;;;;;5027865;28;20029;-84
2022/10/03 07:01:11;;;;;;;7.90;1.27;;;;;;;;;;5030899;28;20045;-84
2022/10/03 07:04:01;;;;;;;9.77;1.33;;;;;;;;;;5032586;28;20106;-83
2022/10/03 07:06:38;;;;;;;6.78;1.33;;;;;;;;;;5044273;28;20190;-84
2022/10/03 07:09:22;;;;;;;8.02;1.42;;;;;;;;;;5032586;28;20589;-83
2022/10/03 07:11:59;;;;;;;5.47;1.50;;;;;;;;;;5028533;28;20184;-84
2022/10/03 07:14:37;;;;;;;9.13;1.38;;;;;;;;;;4992706;28;20034;-84
2022/10/03 07:17:27;;;;;;;6.28;1.23;;;;;;;;;;5028806;28;20248;-84
2022/10/03 07:20:08;;;;;;;5.25;1.00;;;;;;;;;;5013019;28;20034;-84
2022/10/03 07:22:52;;;;;;;7.63;1.70;;;;;;;;;;5002654;28;20120;-84
2022/10/03 07:25:29;;;;;;;6.32;1.65;;;;;;;;;;5023744;28;20037;-85
2022/10/03 07:28:09;;;;;;;11.98;2.10;;;;;;;;;;5015582;28;20343;-85
2022/10/03 07:31:08;;;;;;;7.35;2.03;;;;;;;;;;5014903;28;20026;-84
2022/10/03 07:34:01;;;;;;;5.20;1.20;;;;;;;;;;5001272;28;20041;-84
2022/10/03 07:40:07;;;;;;;8.48;1.17;;;;;;;;;;5016470;28;20117;-84
2022/10/03 07:42:51;;;;;;;5.07;0.95;;;;;;;;;;5017875;28;20497;-84
2022/10/03 07:45:33;;;;;;;4.72;1.20;;;;;;;;;;5016718;28;20442;-85
2022/10/03 07:48:20;;;;;;;6.82;1.30;;;;;;;;;;5005012;28;20042;-84
2022/10/03 07:50:45;;;;;;;6.50;1.08;;;;;;;;;;5008535;28;20511;-84
2022/10/03 07:53:30;;;;;;;5.95;1.50;;;;;;;;;;5019486;28;20037;-84
2022/10/03 07:56:01;;;;;;;6.28;1.20;;;;;;;;;;5023203;28;20108;-83
2022/10/03 07:59:04;;;;;;;5.80;1.20;;;;;;;;;;5016436;28;20598;-85
2022/10/03 08:01:55;;;;;;;5.82;1.02;;;;;;;;;;5015274;28;20045;-84
2022/10/03 08:04:56;;;;;;;6.63;1.35;;;;;;;;;;5022676;28;20041;-84
2022/10/03 08:07:45;;;;;;;7.78;1.50;;;;;;;;;;5007468;28;20045;-84
2022/10/03 08:10:36;;;;;;;9.02;2.33;;;;;;;;;;5006317;28;20080;-83
2022/10/03 08:13:05;;;;;;;3.63;0.80;;;;;;;;;;5015767;28;20137;-84
2022/10/03 08:15:48;;;;;;;8.93;1.38;;;;;;;;;;5015718;28;20041;-84
2022/10/03 08:18:26;;;;;;;5.22;1.05;;;;;;;;;;5012979;28;20064;-85
2022/10/03 08:20:57;;;;;;;6.15;1.10;;;;;;;;;;5015937;28;20053;-84
2022/10/03 08:23:50;;;;;;;5.55;1.20;;;;;;;;;;5021665;28;20034;-84
2022/10/03 08:26:19;;;;;;;5.28;1.40;;;;;;;;;;5000955;28;22154;-84
2022/10/03 08:29:19;;;;;;;6.03;0.80;;;;;;;;;;5014427;28;20120;-84
2022/10/03 08:32:16;;;;;;;3.33;0.98;;;;;;;;;;5020714;28;20076;-84
2022/10/03 08:34:45;;;;;;;;;;;;;;;;;;5010331;28;20041;-85
2022/10/03 08:37:33;;;;;;;4.78;1.05;;;;;;;;;;5016301;28;20384;-86
2022/10/03 08:40:18;;;;;;;7.22;0.98;;;;;;;;;;5013183;28;20060;-87
2022/10/03 08:43:09;;;;;;;4.95;1.42;;;;;;;;;;5007961;28;20121;-87
2022/10/03 08:45:38;;;;;;;4.63;1.08;;;;;;;;;;5031187;28;20038;-86
2022/10/03 08:48:30;;;;;;;6.82;1.05;;;;;;;;;;5011288;28;20040;-87
2022/10/03 08:51:27;;;;;;;5.95;1.25;;;;;;;;;;5014322;28;20488;-87
2022/10/03 08:54:04;;;;;;;4.35;1.00;;;;;;;;;;5023431;28;20029;-88
2022/10/03 08:57:05;;;;;;;4.82;1.00;;;;;;;;;;5016247;28;20049;-88
2022/10/03 08:59:51;;;;;;;5.07;0.95;;;;;;;;;;5011458;28;20044;-87
2022/10/03 09:02:41;;;;;;;6.45;1.52;;;;;;;;;;5014451;28;20109;-87
2022/10/03 09:05:25;;;;;;;2.50;0.85;;;;;;;;;;5011921;28;20037;-87
2022/10/03 09:08:32;;;;;;;8.52;1.42;;;;;;;;;;5013659;28;20564;-87
2022/10/03 09:11:21;;;;;;;5.95;0.90;;;;;;;;;;4995572;28;20124;-87
2022/10/03 09:14:09;;;;;;;6.07;1.30;;;;;;;;;;5014752;28;20037;-85
2022/10/03 09:16:43;;;;;;;4.72;1.05;;;;;;;;;;5011301;28;20172;-88
2022/10/03 09:19:48;;;;;;;4.93;0.80;;;;;;;;;;5017764;28;20069;-88
2022/10/03 09:22:50;;;;;;;5.20;0.85;;;;;;;;;;5016322;28;20627;-88
2022/10/03 09:25:30;;;;;;;5.15;0.90;;;;;;;;;;5005588;28;20049;-88
2022/10/03 09:28:11;;;;;;;5.13;0.88;;;;;;;;;;5004213;28;20480;-87
2022/10/03 09:30:50;;;;;;;5.97;1.15;;;;;;;;;;5003562;28;20030;-88
2022/10/03 09:33:46;;;;;;;5.13;1.15;;;;;;;;;;4997463;28;20476;-85
2022/10/03 09:36:31;;;;;;;5.13;0.98;;;;;;;;;;5004446;28;20432;-85
2022/10/03 09:39:17;;;;;;;8.50;1.15;;;;;;;;;;5003360;28;20539;-84
2022/10/03 09:42:05;;;;;;;5.50;0.95;;;;;;;;;;5002812;28;20642;-84
2022/10/03 09:44:42;;;;;;;5.35;1.15;;;;;;;;;;5005100;28;20037;-84
2022/10/03 09:47:23;;;;;;;6.20;1.52;;;;;;;;;;5015788;28;20045;-84
2022/10/03 09:50:22;;;;;;;6.50;1.27;;;;;;;;;;5014390;28;20238;-84
2022/10/03 09:53:24;;;;;;;4.30;1.13;;;;;;;;;;5002911;28;20039;-83
2022/10/03 09:56:13;;;;;;;4.45;1.00;;;;;;;;;;4996075;28;20041;-83
2022/10/03 09:59:17;;;;;;;4.90;1.02;;;;;;;;;;5003734;28;20503;-83
2022/10/03 10:02:14;;;;;;;8.73;1.13;;;;;;;;;;5011321;28;20045;-85
2022/10/03 10:04:58;;;;;;;6.70;1.23;;;;;;;;;;5012246;28;20050;-82
2022/10/03 10:07:29;;;;;;;8.65;1.35;;;;;;;;;;4997567;28;20050;-85
2022/10/03 10:10:19;;;;;;;4.60;0.80;;;;;;;;;;5014333;28;20646;-84
2022/10/03 10:13:01;;;;;;;3.88;1.00;;;;;;;;;;5014031;28;20463;-84
2022/10/03 10:15:32;;;;;;;5.00;0.95;;;;;;;;;;5006356;28;20117;-83
2022/10/03 10:18:06;;;;;;;4.10;0.90;;;;;;;;;;5021653;28;20045;-84
2022/10/03 10:20:59;;;;;;;4.65;1.00;;;;;;;;;;4999068;28;20169;-84
2022/10/03 10:23:58;;;;;;;5.60;1.42;;;;;;;;;;5012444;28;20042;-84
2022/10/03 10:26:42;;;;;;;3.88;1.20;;;;;;;;;;5010929;28;20033;-84
2022/10/03 10:29:11;;;;;;;4.43;0.88;;;;;;;;;;5015126;28;20042;-84
2022/10/03 10:32:04;;;;;;;5.15;1.02;;;;;;;;;;4997125;28;20053;-83
2022/10/03 10:34:57;;;;;;;2.78;0.73;;;;;;;;;;5013739;28;20084;-81
2022/10/03 10:37:32;;;;;;;2.88;0.63;;;;;;;;;;5009855;28;20038;-82
2022/10/03 10:40:25;;;;;;;4.72;0.98;;;;;;;;;;5013548;28;20107;-81
2022/10/03 10:43:08;;;;;;;6.32;1.10;;;;;;;;;;4996165;28;20038;-81
2022/10/03 10:46:16;;;;;;;4.40;1.30;;;;;;;;;;5013911;28;20740;-81
2022/10/03 10:49:00;;;;;;;5.50;0.80;;;;;;;;;;4993686;28;20038;-81
2022/10/03 10:51:47;;;;;;;4.10;0.90;;;;;;;;;;5018696;28;20037;-82
2022/10/03 10:54:21;;;;;;;4.15;0.90;;;;;;;;;;5015553;28;20084;-82
2022/10/03 10:57:14;;;;;;;3.70;0.70;;;;;;;;;;5013771;28;20060;-82
2022/10/03 10:59:58;;;;;;;4.40;1.10;;;;;;;;;;5016763;28;20072;-81
2022/10/03 11:02:45;;;;;;;4.80;0.77;;;;;;;;;;5016123;28;20041;-82
2022/10/03 11:05:28;;;;;;;4.28;0.73;;;;;;;;;;5012317;28;20449;-82
2022/10/03 11:08:31;;;;;;;3.00;0.68;;;;;;;;;;5019267;28;20041;-82
2022/10/03 11:11:40;;;;;;;3.17;0.88;;;;;;;;;;5006374;28;20749;-82
2022/10/03 11:14:25;;;;;;;3.72;0.75;;;;;;;;;;5013923;28;20046;-81
2022/10/03 11:17:09;;;;;;;2.60;0.65;;;;;;;;;;5015293;28;20171;-81
2022/10/03 11:20:00;;;;;;;7.97;1.23;;;;;;;;;;5014935;28;20480;-82
2022/10/03 11:23:02;;;;;;;3.13;0.65;;;;;;;;;;5012149;28;20032;-81
2022/10/03 11:25:36;;;;;;;4.20;1.17;;;;;;;;;;5022708;28;20112;-82
2022/10/03 11:28:17;;;;;;;6.03;1.00;;;;;;;;;;5012473;28;20071;-82
2022/10/03 11:31:00;;;;;;;4.57;0.82;;;;;;;;;;5009109;28;20139;-81
2022/10/03 11:33:57;;;;;;;3.58;0.47;;;;;;;;;;5012326;28;20104;-81
2022/10/03 11:37:00;;;;;;;4.60;0.95;;;;;;;;;;5014930;28;20044;-81
2022/10/03 11:39:53;;;;;;;4.95;0.77;;;;;;;;;;5013685;28;20095;-81
2022/10/03 11:42:53;;;;;;;3.50;0.80;;;;;;;;;;5010922;28;20084;-82
2022/10/03 11:45:25;;;;;;;3.20;0.85;;;;;;;;;;5001246;28;20061;-81
2022/10/03 11:48:28;;;;;;;3.63;0.82;;;;;;;;;;5014238;28;20060;-81
2022/10/03 11:51:01;;;;;;;6.63;1.20;;;;;;;;;;5015307;28;20030;-81
2022/10/03 11:53:43;;;;;;;3.40;0.80;;;;;;;;;;5016956;28;20280;-81
2022/10/03 11:56:23;;;;;;;4.40;1.50;;;;;;;;;;5012089;28;20563;-82
2022/10/03 11:59:11;;;;;;;6.28;1.20;;;;;;;;;;5015173;28;20357;-81
2022/10/03 12:02:01;;;;;;;4.60;0.85;;;;;;;;;;5010746;28;20041;-83
2022/10/03 12:04:51;;;;;;;5.50;1.00;;;;;;;;;;5021626;28;20037;-81
2022/10/03 12:10:31;;;;;;;6.03;1.20;;;;;;;;;;5014590;28;20849;-81
2022/10/03 12:12:57;;;;;;;3.97;0.85;;;;;;;;;;5009094;28;20064;-82
2022/10/03 12:15:45;;;;;;;6.95;1.17;;;;;;;;;;4998262;28;20061;-81
2022/10/03 12:18:13;;;;;;;3.53;1.10;;;;;;;;;;5020299;28;20545;-81
2022/10/03 12:20:57;;;;;;;5.30;1.20;;;;;;;;;;5014518;28;20037;-81
2022/10/03 12:23:53;;;;;;;2.95;0.80;;;;;;;;;;5009653;28;20480;-81
2022/10/03 12:26:42;;;;;;;4.18;0.80;;;;;;;;;;5010954;28;20528;-81
2022/10/03 12:29:12;;;;;;;4.65;1.20;;;;;;;;;;5014495;28;20037;-81
2022/10/03 12:31:53;;;;;;;7.10;1.00;;;;;;;;;;5004761;28;20511;-81
2022/10/03 12:34:28;;;;;;;3.83;0.80;;;;;;;;;;5009471;28;20512;-81
2022/10/03 12:37:21;;;;;;;5.68;0.93;;;;;;;;;;5009748;28;20136;-81
2022/10/03 12:40:04;;;;;;;2.13;0.50;;;;;;;;;;5011887;28;20117;-81
2022/10/03 12:43:14;;;;;;;2.90;1.05;;;;;;;;;;5015145;28;20040;-81
2022/10/03 12:45:48;;;;;;;4.25;0.80;;;;;;;;;;5005448;28;20107;-81
2022/10/03 12:48:32;;;;;;;4.50;0.77;;;;;;;;;;5004982;28;20046;-81
2022/10/03 12:51:17;;;;;;;3.90;0.70;;;;;;;;;;5003723;28;20431;-81
2022/10/03 12:53:54;;;;;;;7.78;0.75;;;;;;;;;;5013123;28;20483;-82
2022/10/03 12:56:51;;;;;;;2.35;0.50;;;;;;;;;;4998023;28;20030;-81
2022/10/03 12:59:37;;;;;;;2.67;0.63;;;;;;;;;;4998267;28;20034;-81
2022/10/03 13:02:14;;;;;;;2.75;0.73;;;;;;;;;;5004712;28;20505;-83
2022/10/03 13:04:54;;;;;;;4.00;0.68;;;;;;;;;;5013267;28;20059;-81
2022/10/03 13:07:25;;;;;;;2.85;0.68;;;;;;;;;;5013641;28;20064;-81
2022/10/03 13:09:56;;;;;;;2.17;0.60;;;;;;;;;;5014177;28;20099;-81
2022/10/03 13:12:27;;;;;;;1.98;0.50;;;;;;;;;;5015407;28;20072;-82
2022/10/03 13:15:30;;;;;;;1.85;0.50;;;;;;;;;;5021069;28;20033;-81
2022/10/03 13:18:08;;;;;;;3.13;1.02;;;;;;;;;;5015995;28;20080;-82
2022/10/03 13:20:38;;;;;;;3.67;0.70;;;;;;;;;;5009199;28;20665;-81
2022/10/03 13:23:06;;;;;;;2.47;0.57;;;;;;;;;;5000010;28;20034;-82
2022/10/03 13:25:36;;;;;;;3.17;0.70;;;;;;;;;;5002093;28;20475;-81
2022/10/03 13:28:15;;;;;;;2.72;0.80;;;;;;;;;;5014215;28;20057;-82
2022/10/03 13:30:52;;;;;;;5.70;1.00;;;;;;;;;;5011152;28;20037;-81
2022/10/03 13:33:19;;;;;;;;;;;;;;;;;;4996120;28;20050;-81
2022/10/03 13:35:58;;;;;;;3.33;0.60;;;;;;;;;;4997702;28;20706;-81
2022/10/03 13:38:53;;;;;;;3.45;0.80;;;;;;;;;;5009801;28;20034;-82
2022/10/03 13:41:41;;;;;;;3.47;0.65;;;;;;;;;;5008295;28;20044;-81
2022/10/03 13:44:09;;;;;;;3.75;0.73;;;;;;;;;;5009004;28;20568;-82
2022/10/03 13:47:16;;;;;;;2.20;0.52;;;;;;;;;;5013689;28;20037;-82
2022/10/03 13:49:47;;;;;;;3.72;0.85;;;;;;;;;;5010711;28;20037;-83
2022/10/03 13:52:26;;;;;;;4.45;0.80;;;;;;;;;;5020903;28;20484;-82
2022/10/03 13:54:59;;;;;;;4.80;0.90;;;;;;;;;;5021957;28;20067;-82
2022/10/03 13:57:51;;;;;;;2.45;0.70;;;;;;;;;;5004064;28;20495;-82
2022/10/03 14:00:19;;;;;;;4.35;0.65;;;;;;;;;;4997692;28;20042;-82
2022/10/03 14:02:50;;;;;;;3.38;0.68;;;;;;;;;;5019812;28;20038;-81
2022/10/03 14:05:40;;;;;;;5.05;0.90;;;;;;;;;;5012181;28;20121;-82
2022/10/03 14:08:38;;;;;;;3.67;1.08;;;;;;;;;;5014450;28;20053;-82
2022/10/03 14:11:13;;;;;;;4.47;0.80;;;;;;;;;;5007490;28;20511;-82
2022/10/03 14:14:00;;;;;;;3.08;0.60;;;;;;;;;;5012974;28;20116;-81
2022/10/03 14:16:29;;;;;;;3.83;0.98;;;;;;;;;;5013514;28;20034;-82
2022/10/03 14:19:20;;;;;;;4.32;0.90;;;;;;;;;;4994904;28;20440;-81
2022/10/03 14:21:58;;;;;;;4.65;0.70;;;;;;;;;;5013364;28;20775;-84
2022/10/03 14:24:44;;;;;;;3.80;0.70;;;;;;;;;;5013399;28;20053;-82
2022/10/03 14:27:41;;;;;;;4.45;1.02;;;;;;;;;;5014943;28;20054;-83
2022/10/03 14:30:43;;;;;;;4.82;0.82;;;;;;;;;;5013810;28;20076;-82
2022/10/03 14:33:38;;;;;;;2.60;1.15;;;;;;;;;;4998717;28;20042;-82
2022/10/03 14:36:35;;;;;;;3.80;0.73;;;;;;;;;;5019254;28;20026;-82
2022/10/03 14:39:22;;;;;;;2.85;0.77;;;;;;;;;;5013118;28;20037;-83
2022/10/03 14:41:50;;;;;;;3.47;0.63;;;;;;;;;;5012869;28;20164;-82
2022/10/03 14:44:21;;;;;;;3.25;0.68;;;;;;;;;;5024378;28;20042;-83
2022/10/03 14:46:56;;;;;;;4.68;0.70;;;;;;;;;;5007459;28;20041;-82
2022/10/03 14:49:26;;;;;;;3.63;0.90;;;;;;;;;;5016283;28;20068;-82
2022/10/03 14:52:04;;;;;;;4.45;0.82;;;;;;;;;;5007793;28;20041;-82
2022/10/03 14:54:36;;;;;;;4.95;1.02;;;;;;;;;;5000423;28;20382;-82
2022/10/03 14:57:32;;;;;;;7.45;1.50;;;;;;;;;;5014262;28;20080;-83
2022/10/03 14:59:58;;;;;;;3.00;0.60;;;;;;;;;;5013832;28;20030;-81
2022/10/03 15:02:29;;;;;;;3.78;0.93;;;;;;;;;;5001682;28;20397;-83
2022/10/03 15:05:02;;;;;;;3.97;0.98;;;;;;;;;;5016470;28;20033;-82
2022/10/03 15:07:37;;;;;;;2.65;0.70;;;;;;;;;;4995791;28;20045;-82
2022/10/03 15:10:07;;;;;;;4.57;1.00;;;;;;;;;;5007949;28;20184;-82
2022/10/03 15:12:33;;;;;;;3.03;0.63;;;;;;;;;;5001764;28;20046;-82
2022/10/03 15:15:06;;;;;;;5.85;0.80;;;;;;;;;;5014774;28;20068;-82
2022/10/03 15:17:43;;;;;;;2.10;0.50;;;;;;;;;;5012437;28;20030;-81
2022/10/03 15:20:10;;;;;;;3.90;1.27;;;;;;;;;;5008594;28;20116;-82
2022/10/03 15:22:38;;;;;;;2.80;0.70;;;;;;;;;;4999394;28;20520;-82
2022/10/03 15:25:19;;;;;;;3.28;0.90;;;;;;;;;;5012610;28;20433;-82
2022/10/03 15:27:50;;;;;;;3.58;0.75;;;;;;;;;;5000207;28;20460;-82
2022/10/03 15:30:24;;;;;;;2.83;0.77;;;;;;;;;;4999618;28;20489;-82
2022/10/03 15:32:50;;;;;;;5.80;0.88;;;;;;;;;;5016554;28;20029;-86
2022/10/03 15:35:23;;;;;;;4.35;0.98;;;;;;;;;;5012155;28;20045;-86
2022/10/03 15:37:51;;;;;;;5.13;1.10;;;;;;;;;;5007512;28;20033;-86
2022/10/03 15:40:31;;;;;;;11.65;1.67;;;;;;;;;;5006811;28;20196;-86
2022/10/03 15:43:04;;;;;;;5.53;0.80;;;;;;;;;;5012358;28;20397;-86
2022/10/03 15:45:31;;;;;;;4.03;0.93;;;;;;;;;;5005856;28;20037;-85
2022/10/03 15:48:01;;;;;;;2.95;0.70;;;;;;;;;;5016944;28;20048;-85
2022/10/03 15:50:34;;;;;;;6.47;0.93;;;;;;;;;;5021890;28;20049;-86
2022/10/03 15:53:09;;;;;;;4.30;0.90;;;;;;;;;;5010251;28;20038;-85
2022/10/03 15:55:45;;;;;;;5.32;1.40;;;;;;;;;;5000966;28;20481;-85
2022/10/03 15:58:25;;;;;;;4.38;0.80;;;;;;;;;;5022780;28;20512;-85
2022/10/03 16:01:07;;;;;;;4.70;1.05;;;;;;;;;;5023421;28;20486;-85
2022/10/03 16:03:35;;;;;;;3.63;0.88;;;;;;;;;;4999684;28;20038;-85
2022/10/03 16:06:00;;;;;;;2.40;0.60;;;;;;;;;;5015133;28;20944;-85
2022/10/03 16:08:28;;;;;;;5.70;1.15;;;;;;;;;;5023372;28;20041;-85
2022/10/03 16:11:20;;;;;;;5.45;0.82;;;;;;;;;;4997647;28;20079;-85
2022/10/03 16:13:54;;;;;;;4.28;1.33;;;;;;;;;;5014088;28;20045;-82
2022/10/03 16:16:32;;;;;;;4.28;0.80;;;;;;;;;;5006663;28;20358;-82
2022/10/03 16:19:07;;;;;;;5.68;1.40;;;;;;;;;;5015426;28;20088;-81
2022/10/03 16:21:49;;;;;;;4.05;0.90;;;;;;;;;;5011549;28;20030;-83
2022/10/03 16:24:22;;;;;;;3.55;0.90;;;;;;;;;;5000273;28;20495;-81
2022/10/03 16:27:01;;;;;;;5.20;1.17;;;;;;;;;;5006877;28;20120;-82
2022/10/03 16:29:31;;;;;;;6.57;1.77;;;;;;;;;;5008082;28;20519;-81